This is the latest recevied weather packets stored in our database for station/object SP5MRF. If no packets are shown the sender has not sent any weather packets the latest 1 day(s).
| Time | Temp. | Humidity | Pressure | Rain* | Wind** | Luminosity | Snow |
|---|---|---|---|---|---|---|---|
| 1836274469 | 12.78° C | 89% | 1020.3 hPa | 0 mm | 0 m/s | - | - |
| 1836274199 | 12.78° C | 89% | 1020 hPa | 0 mm | 0 m/s | - | - |
| 1836273989 | 12.78° C | 89% | 1020.3 hPa | 0 mm | 0 m/s | - | - |
| 1778040356 | 11.67° C | 82% | 1001.5 hPa | 0 mm | 0 m/s | - | - |
| 1778039876 | 11.67° C | 81% | 1001.5 hPa | 0 mm | 0 m/s | - | - |
| 1778039396 | 11.67° C | 80% | 1001.6 hPa | 0 mm | 0 m/s | - | - |
| 1778038916 | 11.67° C | 80% | 1001.5 hPa | 0 mm | 0 m/s | - | - |
| 1778038437 | 11.67° C | 80% | 1001.5 hPa | 0 mm | 0 m/s | - | - |
| 1778037956 | 11.11° C | 80% | 1001.5 hPa | 0 mm | 0 m/s | - | - |
| 1778037476 | 11.11° C | 79% | 1001.6 hPa | 0 mm | 0 m/s | - | - |
| 1778036996 | 11.67° C | 79% | 1001.6 hPa | 0 mm | 0 m/s | - | - |
| 1778036516 | 11.67° C | 79% | 1001.8 hPa | 0 mm | 0 m/s | - | - |
| 1778036036 | 11.67° C | 79% | 1001.8 hPa | 0 mm | 0 m/s | - | - |
| 1778035556 | 11.67° C | 78% | 1001.6 hPa | 0 mm | 0 m/s | - | - |
| 1778035076 | 11.67° C | 78% | 1001.4 hPa | 0 mm | 0 m/s | - | - |
| 1778034596 | 11.67° C | 78% | 1001.8 hPa | 0 mm | 0 m/s | - | - |
| 1778034116 | 11.67° C | 77% | 1001.9 hPa | 0 mm | 0 m/s | - | - |
| 1778033636 | 11.67° C | 77% | 1001.9 hPa | 0 mm | 0 m/s | - | - |
| 1778033156 | 12.22° C | 76% | 1001.8 hPa | 0 mm | 0 m/s | - | - |
| 1778032676 | 12.22° C | 76% | 1001.9 hPa | 0 mm | 0 m/s | - | - |
| 1778032196 | 12.22° C | 76% | 1002 hPa | 0 mm | 0 m/s | - | - |
| 1778031716 | 12.78° C | 76% | 1002 hPa | 0 mm | 0 m/s | - | - |
| 1778030756 | 12.78° C | 76% | 1002 hPa | 0 mm | 0 m/s | - | - |
| 1778030276 | 13.33° C | 76% | 1001.9 hPa | 0 mm | 0 m/s | - | - |
| 1778029796 | 13.33° C | 76% | 1001.8 hPa | 0 mm | 0 m/s | - | - |
* Rain latest hour (hover to see other rain measurements)
** Current wind speed in m/s (hover to see current wind gust speed)